Time;durP1;ratioP1;P1;durP2;ratioP2;P2;SDS_P1;SDS_P2;PMS_P1;PMS_P2;Temp;Humidity;BMP_temperature;BMP_pressure;BME280_temperature;BME280_humidity;BME280_pressure;Samples;Min_cycle;Max_cycle;Signal;HPM_P1;HPM_P2
2023/10/27 00:01:06;;;;;;;4.83;1.13;;;10.60;99.90;;;;;;5036576;28;20192;-82
2023/10/27 00:03:32;;;;;;;7.03;2.30;;;10.40;99.90;;;;;;5019000;28;20205;-83
2023/10/27 00:05:58;;;;;;;13.17;2.10;;;10.40;99.90;;;;;;5036703;28;20185;-82
2023/10/27 00:08:23;;;;;;;5.77;1.90;;;10.40;99.90;;;;;;5036702;28;20193;-81
2023/10/27 00:10:55;;;;;;;14.77;2.30;;;10.30;99.90;;;;;;5002221;28;20186;-82
2023/10/27 00:13:21;;;;;;;5.80;1.90;;;10.30;99.90;;;;;;5012460;28;20189;-82
2023/10/27 00:15:47;;;;;;;6.43;1.60;;;10.30;99.90;;;;;;5012593;28;20175;-82
2023/10/27 00:18:13;;;;;;;8.33;2.00;;;10.20;99.90;;;;;;5032474;28;20696;-83
2023/10/27 00:20:38;;;;;;;8.17;1.90;;;10.30;99.90;;;;;;5036511;28;20178;-81
2023/10/27 00:23:04;;;;;;;9.63;1.93;;;10.20;99.90;;;;;;5024203;28;20192;-82
2023/10/27 00:25:30;;;;;;;9.00;1.83;;;10.20;99.90;;;;;;5055330;28;20174;-83
2023/10/27 00:27:56;;;;;;;6.40;1.93;;;10.20;99.90;;;;;;5037868;28;20224;-81
2023/10/27 00:30:22;;;;;;;8.97;1.80;;;10.30;99.90;;;;;;5032753;28;20233;-82
2023/10/27 00:32:48;;;;;;;7.50;1.63;;;10.10;99.90;;;;;;5030643;28;20181;-80
2023/10/27 00:35:14;;;;;;;13.67;1.83;;;10.10;99.90;;;;;;5033245;28;20188;-80
2023/10/27 00:37:40;;;;;;;8.87;1.90;;;10.10;99.90;;;;;;5035100;28;20170;-81
2023/10/27 00:40:07;;;;;;;10.00;2.07;;;10.10;99.90;;;;;;5017611;28;20624;-81
2023/10/27 00:42:33;;;;;;;13.37;2.80;;;10.20;99.90;;;;;;5017919;28;20197;-80
2023/10/27 00:44:59;;;;;;;10.50;2.23;;;10.20;99.90;;;;;;5035159;28;20184;-81
2023/10/27 00:47:25;;;;;;;10.00;2.80;;;10.20;99.90;;;;;;5034887;28;20230;-82
2023/10/27 00:49:52;;;;;;;7.63;2.27;;;11.30;99.90;;;;;;5034408;28;20225;-81
2023/10/27 00:52:19;;;;;;;6.07;1.93;;;10.20;99.90;;;;;;5034873;28;20185;-81
2023/10/27 00:54:47;;;;;;;8.73;2.20;;;10.10;99.90;;;;;;5035017;28;20185;-83
2023/10/27 00:57:14;;;;;;;5.80;1.93;;;10.00;99.90;;;;;;5034915;28;20182;-84
2023/10/27 00:59:40;;;;;;;10.33;1.70;;;10.00;99.90;;;;;;5035567;28;20178;-81
2023/10/27 01:02:06;;;;;;;6.30;1.60;;;9.90;99.90;;;;;;5032201;28;20197;-82
2023/10/27 01:04:32;;;;;;;9.87;1.90;;;10.00;99.90;;;;;;5037893;28;20169;-80
2023/10/27 01:06:58;;;;;;;9.17;2.07;;;10.00;99.90;;;;;;5035724;28;20213;-80
2023/10/27 01:09:23;;;;;;;9.13;2.07;;;10.00;99.90;;;;;;5036696;28;20166;-80
2023/10/27 01:11:50;;;;;;;7.13;1.97;;;9.90;99.90;;;;;;5045229;28;20223;-79
2023/10/27 01:14:17;;;;;;;8.03;2.10;;;9.80;99.90;;;;;;5026525;28;20174;-80
2023/10/27 01:16:43;;;;;;;3.93;1.70;;;10.00;99.90;;;;;;5015430;28;20174;-80
2023/10/27 01:19:08;;;;;;;10.00;1.80;;;9.80;99.90;;;;;;5032854;28;20196;-80
2023/10/27 01:21:34;;;;;;;9.40;1.90;;;10.00;99.90;;;;;;5033819;28;20308;-80
2023/10/27 01:23:59;;;;;;;6.80;2.23;;;9.70;99.90;;;;;;5033847;28;20177;-80
2023/10/27 01:26:25;;;;;;;7.37;2.13;;;9.70;99.90;;;;;;5033179;28;20205;-80
2023/10/27 01:28:51;;;;;;;8.33;1.80;;;9.70;99.90;;;;;;5033489;28;20176;-81
2023/10/27 01:31:17;;;;;;;6.13;2.53;;;9.70;99.90;;;;;;5033639;28;20340;-80
2023/10/27 01:33:44;;;;;;;6.47;1.80;;;9.60;99.90;;;;;;5033773;28;20209;-80
2023/10/27 01:36:10;;;;;;;6.47;1.70;;;9.70;99.90;;;;;;5015377;28;20182;-81
2023/10/27 01:38:35;;;;;;;6.57;1.70;;;9.60;99.90;;;;;;5033183;28;20191;-81
2023/10/27 01:41:01;;;;;;;6.97;1.80;;;9.90;99.90;;;;;;5033382;28;20537;-81
2023/10/27 01:43:26;;;;;;;9.17;1.40;;;9.70;99.90;;;;;;5033617;28;20281;-81
2023/10/27 01:45:52;;;;;;;8.53;1.80;;;9.60;99.90;;;;;;5032372;28;20180;-81
2023/10/27 01:48:18;;;;;;;5.07;1.30;;;9.60;99.90;;;;;;5011892;28;20569;-81
2023/10/27 01:50:43;;;;;;;8.20;2.00;;;9.40;99.90;;;;;;5013218;28;20189;-81
2023/10/27 01:53:09;;;;;;;5.63;1.40;;;9.70;99.90;;;;;;5013062;28;20197;-79
2023/10/27 01:55:34;;;;;;;3.17;1.30;;;9.70;99.90;;;;;;5013270;28;20181;-80
2023/10/27 01:58:00;;;;;;;6.23;1.43;;;9.50;99.90;;;;;;5013159;28;20269;-79
2023/10/27 02:00:26;;;;;;;4.93;1.40;;;9.50;99.90;;;;;;5013089;28;20170;-80
2023/10/27 02:02:51;;;;;;;5.87;1.73;;;9.50;99.90;;;;;;4993687;28;20676;-79
2023/10/27 02:05:17;;;;;;;9.07;1.43;;;9.50;99.90;;;;;;4993858;28;20215;-79
2023/10/27 02:07:43;;;;;;;5.07;1.20;;;9.40;99.90;;;;;;4994210;28;20233;-82
2023/10/27 02:10:08;;;;;;;7.03;1.33;;;9.40;99.90;;;;;;5008030;28;20237;-79
2023/10/27 02:12:34;;;;;;;7.53;1.57;;;9.40;99.90;;;;;;5012975;28;20692;-80
2023/10/27 02:14:59;;;;;;;6.17;1.80;;;9.50;99.90;;;;;;5013212;28;20174;-79
2023/10/27 02:17:27;;;;;;;7.53;1.70;;;9.50;99.90;;;;;;5013079;28;20519;-80
2023/10/27 02:19:54;;;;;;;6.90;1.40;;;9.40;99.90;;;;;;5013128;28;20183;-79
2023/10/27 02:22:20;;;;;;;5.93;1.40;;;9.60;99.90;;;;;;5013196;28;20194;-80
2023/10/27 02:24:45;;;;;;;8.27;1.30;;;9.70;99.90;;;;;;5025191;28;20174;-80
2023/10/27 02:27:13;;;;;;;10.57;1.40;;;9.60;99.90;;;;;;5026815;28;20278;-82
2023/10/27 02:29:38;;;;;;;4.90;1.50;;;9.70;99.90;;;;;;5011661;28;20171;-81
2023/10/27 02:32:07;;;;;;;14.77;1.63;;;9.60;99.90;;;;;;5029210;28;20179;-81
2023/10/27 02:34:33;;;;;;;5.97;1.50;;;10.10;99.90;;;;;;5012142;28;20194;-80
2023/10/27 02:36:59;;;;;;;6.97;1.63;;;9.50;99.90;;;;;;5012866;28;20171;-80
2023/10/27 02:39:24;;;;;;;4.03;1.33;;;9.50;99.90;;;;;;5013735;28;20533;-80
2023/10/27 02:41:50;;;;;;;4.50;1.50;;;9.80;99.90;;;;;;5012776;28;20189;-80
2023/10/27 02:44:15;;;;;;;4.03;1.20;;;9.50;99.90;;;;;;5011176;28;20181;-80
2023/10/27 02:46:41;;;;;;;4.53;1.30;;;9.50;99.90;;;;;;5014610;28;20272;-80
2023/10/27 02:49:07;;;;;;;6.73;0.90;;;9.50;99.90;;;;;;5032520;28;20170;-80
2023/10/27 02:51:32;;;;;;;3.60;1.30;;;10.00;99.90;;;;;;5034251;28;20178;-79
2023/10/27 02:53:58;;;;;;;4.80;1.60;;;9.40;99.90;;;;;;5051871;28;20184;-79
2023/10/27 02:56:24;;;;;;;3.23;0.90;;;9.50;99.90;;;;;;5027163;28;20613;-80
2023/10/27 02:58:51;;;;;;;3.20;1.20;;;9.30;99.90;;;;;;5033948;28;20189;-80
2023/10/27 03:01:16;;;;;;;3.77;0.97;;;9.00;99.90;;;;;;5031855;28;20182;-80
2023/10/27 03:03:44;;;;;;;5.63;1.10;;;9.20;99.90;;;;;;5032214;28;20172;-79
2023/10/27 03:06:12;;;;;;;7.90;1.50;;;9.60;99.90;;;;;;5031063;28;20233;-79
2023/10/27 03:08:39;;;;;;;6.47;1.50;;;9.10;99.90;;;;;;5031873;28;20260;-79
2023/10/27 03:11:06;;;;;;;5.23;1.30;;;9.10;99.90;;;;;;5031765;28;20469;-80
2023/10/27 03:13:32;;;;;;;6.10;1.60;;;9.00;99.90;;;;;;5032184;28;20203;-79
2023/10/27 03:15:58;;;;;;;4.60;1.23;;;9.70;99.90;;;;;;5030698;28;20182;-80
2023/10/27 03:18:25;;;;;;;8.03;1.37;;;9.00;99.90;;;;;;5030215;28;20710;-80
2023/10/27 03:20:58;;;;;;;5.43;1.37;;;9.00;99.90;;;;;;5030025;28;20178;-81
2023/10/27 03:23:24;;;;;;;3.60;1.40;;;9.10;99.90;;;;;;5030799;28;20656;-79
2023/10/27 03:25:50;;;;;;;6.47;1.27;;;9.10;99.90;;;;;;5020905;28;20191;-79
2023/10/27 03:28:15;;;;;;;4.30;1.30;;;9.40;99.90;;;;;;5032155;28;20275;-80
2023/10/27 03:30:42;;;;;;;4.80;1.40;;;9.20;99.90;;;;;;5031192;28;20171;-80
2023/10/27 03:33:08;;;;;;;5.50;1.43;;;9.50;99.90;;;;;;5020576;28;20186;-81
2023/10/27 03:35:34;;;;;;;4.90;1.37;;;9.10;99.90;;;;;;5003683;28;20182;-79
2023/10/27 03:38:00;;;;;;;6.37;1.47;;;9.10;99.90;;;;;;5020138;28;20178;-80
2023/10/27 03:40:26;;;;;;;8.30;1.70;;;9.20;99.90;;;;;;5021055;28;20251;-80
2023/10/27 03:42:51;;;;;;;5.00;1.30;;;9.30;99.90;;;;;;5031142;28;20658;-80
2023/10/27 03:45:17;;;;;;;4.83;1.13;;;9.70;99.90;;;;;;5031450;28;20213;-80
2023/10/27 03:47:42;;;;;;;3.90;1.50;;;9.60;99.90;;;;;;5030837;28;20708;-80
2023/10/27 03:50:08;;;;;;;4.00;1.40;;;9.20;99.90;;;;;;5030377;28;20615;-81
2023/10/27 03:52:34;;;;;;;3.97;1.47;;;9.30;99.90;;;;;;5031170;28;20231;-80
2023/10/27 03:55:00;;;;;;;6.80;1.63;;;9.30;99.90;;;;;;5019929;28;20170;-81
2023/10/27 03:57:25;;;;;;;3.23;1.23;;;9.40;99.90;;;;;;5026508;28;20178;-81
2023/10/27 03:59:51;;;;;;;7.10;1.33;;;9.50;99.90;;;;;;5031281;28;20196;-81
2023/10/27 04:02:18;;;;;;;6.03;1.30;;;;;;;;;;5030491;28;20182;-81
2023/10/27 04:04:44;;;;;;;5.27;1.60;;;9.40;99.90;;;;;;5037327;28;20637;-81
2023/10/27 04:07:09;;;;;;;6.63;1.43;;;9.40;99.90;;;;;;5020636;28;20232;-80
2023/10/27 04:09:35;;;;;;;8.70;1.37;;;9.20;99.90;;;;;;5042107;28;20208;-79
2023/10/27 04:12:01;;;;;;;6.00;1.30;;;9.20;99.90;;;;;;5038729;28;20188;-80
2023/10/27 04:14:26;;;;;;;3.07;1.20;;;9.10;99.90;;;;;;5034083;28;20580;-81
2023/10/27 04:16:52;;;;;;;6.37;1.10;;;9.30;99.90;;;;;;5035199;28;20641;-82
2023/10/27 04:19:18;;;;;;;3.17;1.20;;;9.20;99.90;;;;;;5035516;28;20170;-82
2023/10/27 04:21:44;;;;;;;6.93;1.50;;;9.20;99.90;;;;;;5035008;28;20177;-81
2023/10/27 04:24:09;;;;;;;8.67;1.23;;;9.10;99.90;;;;;;5034866;28;20174;-82
2023/10/27 04:26:36;;;;;;;8.87;1.43;;;9.90;99.90;;;;;;5034826;28;20205;-81
2023/10/27 04:29:01;;;;;;;6.80;1.13;;;9.10;99.90;;;;;;5032249;28;20268;-80
2023/10/27 04:31:27;;;;;;;3.17;1.13;;;9.00;99.90;;;;;;5016040;28;20292;-79
2023/10/27 04:33:56;;;;;;;4.20;1.20;;;8.80;99.90;;;;;;5034943;28;20162;-79
2023/10/27 04:36:21;;;;;;;4.33;1.30;;;9.00;99.90;;;;;;5036325;28;20180;-78
2023/10/27 04:38:47;;;;;;;6.63;1.80;;;8.90;99.90;;;;;;5036473;28;20181;-78
2023/10/27 04:41:13;;;;;;;6.90;1.60;;;9.10;99.90;;;;;;5041337;28;20174;-79
2023/10/27 04:43:38;;;;;;;4.37;1.30;;;9.00;99.90;;;;;;5049436;28;20625;-81
2023/10/27 04:46:04;;;;;;;6.30;1.60;;;9.00;99.90;;;;;;5048603;28;20173;-80
2023/10/27 04:48:30;;;;;;;6.97;1.37;;;9.00;99.90;;;;;;5045856;28;20253;-80
2023/10/27 04:50:58;;;;;;;6.57;1.60;;;9.10;99.90;;;;;;5049886;28;20185;-80
2023/10/27 04:53:24;;;;;;;4.37;1.37;;;9.00;99.90;;;;;;5048923;28;20205;-79
2023/10/27 04:55:50;;;;;;;4.83;1.40;;;9.20;99.90;;;;;;5035689;28;20185;-81
2023/10/27 04:58:16;;;;;;;7.63;1.93;;;9.40;99.90;;;;;;5034655;28;20174;-81
2023/10/27 05:00:41;;;;;;;6.63;1.50;;;10.10;99.90;;;;;;5037923;28;20178;-81
2023/10/27 05:03:08;;;;;;;4.33;1.47;;;9.30;99.90;;;;;;5034325;28;20216;-81
2023/10/27 05:05:33;;;;;;;6.20;1.60;;;9.90;99.90;;;;;;5034611;28;20265;-81
2023/10/27 05:07:59;;;;;;;7.47;1.63;;;9.70;99.90;;;;;;5034925;28;20297;-80
2023/10/27 05:10:25;;;;;;;6.83;1.70;;;9.70;99.90;;;;;;5034398;28;20169;-81
2023/10/27 05:12:50;;;;;;;13.50;1.60;;;10.10;99.90;;;;;;5016814;28;20174;-82
2023/10/27 05:15:16;;;;;;;10.30;1.67;;;9.80;99.90;;;;;;5034225;28;20254;-81
2023/10/27 05:17:42;;;;;;;12.43;1.93;;;9.90;99.90;;;;;;5034439;28;20178;-81
2023/10/27 05:20:08;;;;;;;11.47;1.60;;;9.70;99.90;;;;;;5039558;28;20189;-79
2023/10/27 05:22:33;;;;;;;5.57;1.47;;;9.80;99.90;;;;;;5054573;28;20188;-79
2023/10/27 05:25:03;;;;;;;6.57;1.40;;;9.70;99.90;;;;;;5042132;28;20264;-78
2023/10/27 05:27:30;;;;;;;5.90;1.50;;;9.70;99.90;;;;;;5035042;28;20217;-79
2023/10/27 05:29:56;;;;;;;5.67;1.40;;;9.80;99.90;;;;;;5017052;28;20632;-79
2023/10/27 05:32:21;;;;;;;5.80;1.63;;;9.80;99.90;;;;;;5034377;28;20201;-78
2023/10/27 05:34:47;;;;;;;7.20;1.60;;;9.80;99.90;;;;;;5034244;28;20170;-78
2023/10/27 05:37:13;;;;;;;7.33;1.40;;;9.80;99.90;;;;;;5016313;28;20177;-79
2023/10/27 05:39:39;;;;;;;8.07;1.57;;;9.80;99.90;;;;;;5016677;28;20170;-79
2023/10/27 05:42:05;;;;;;;3.83;1.57;;;9.90;99.90;;;;;;5016232;28;20651;-79
2023/10/27 05:44:30;;;;;;;7.80;1.97;;;9.90;99.90;;;;;;5033699;28;20162;-79
2023/10/27 05:46:58;;;;;;;4.47;1.30;;;10.40;99.90;;;;;;5033587;28;20264;-81
2023/10/27 05:49:24;;;;;;;6.50;1.60;;;9.90;99.90;;;;;;5038846;28;20178;-82
2023/10/27 05:51:50;;;;;;;8.30;1.60;;;10.00;99.90;;;;;;5016123;28;20240;-82
2023/10/27 05:54:16;;;;;;;8.47;1.47;;;9.80;99.90;;;;;;5033496;28;20176;-82
2023/10/27 05:56:41;;;;;;;4.83;1.63;;;9.60;99.90;;;;;;5034116;28;20170;-81
2023/10/27 05:59:07;;;;;;;9.87;1.70;;;9.80;99.90;;;;;;5033529;28;20209;-82
2023/10/27 06:01:33;;;;;;;9.07;1.70;;;9.70;99.90;;;;;;5033438;28;20632;-81
2023/10/27 06:03:59;;;;;;;8.93;1.67;;;9.80;99.90;;;;;;5033514;28;20169;-81
2023/10/27 06:06:25;;;;;;;12.13;1.80;;;9.80;99.90;;;;;;5032983;28;20174;-81
2023/10/27 06:08:50;;;;;;;8.30;1.60;;;9.80;99.90;;;;;;5034394;28;20209;-81
2023/10/27 06:11:16;;;;;;;6.30;1.87;;;9.70;99.90;;;;;;5037302;28;20204;-81
2023/10/27 06:13:42;;;;;;;7.13;1.80;;;9.80;99.90;;;;;;5037206;28;20193;-81
2023/10/27 06:16:07;;;;;;;11.00;1.90;;;10.10;99.90;;;;;;5028794;28;20182;-82
2023/10/27 06:18:33;;;;;;;6.17;1.40;;;10.40;99.90;;;;;;5033286;28;20193;-81
2023/10/27 06:20:59;;;;;;;8.60;1.60;;;9.80;99.90;;;;;;5038314;28;20171;-81
2023/10/27 06:23:25;;;;;;;6.13;1.80;;;9.80;99.90;;;;;;5024256;28;20183;-81
2023/10/27 06:25:50;;;;;;;7.20;1.90;;;10.00;99.90;;;;;;4996378;28;20183;-82
2023/10/27 06:28:16;;;;;;;8.73;2.03;;;9.60;99.90;;;;;;5013446;28;20210;-82
2023/10/27 06:30:42;;;;;;;8.70;1.90;;;9.70;99.90;;;;;;5013932;28;20531;-81
2023/10/27 06:33:07;;;;;;;11.37;2.00;;;9.90;99.90;;;;;;5009596;28;20193;-83
2023/10/27 06:35:33;;;;;;;7.07;1.47;;;10.10;99.90;;;;;;5033111;28;20209;-82
2023/10/27 06:37:59;;;;;;;8.63;1.90;;;9.90;99.90;;;;;;5033364;28;20181;-81
2023/10/27 06:40:25;;;;;;;5.87;1.90;;;12.10;99.90;;;;;;5032010;28;20185;-81
2023/10/27 06:42:52;;;;;;;11.67;1.77;;;10.20;99.90;;;;;;5015229;28;20200;-82
2023/10/27 06:45:17;;;;;;;14.83;2.17;;;10.20;99.90;;;;;;5032908;28;20170;-82
2023/10/27 06:47:43;;;;;;;11.37;1.53;;;10.50;99.90;;;;;;5032580;28;20226;-80
2023/10/27 06:50:09;;;;;;;8.40;1.53;;;10.60;99.90;;;;;;5032323;28;20184;-80
2023/10/27 06:52:34;;;;;;;7.10;1.77;;;10.50;99.90;;;;;;5032341;28;20181;-79
2023/10/27 06:55:01;;;;;;;14.57;1.70;;;10.60;99.90;;;;;;5033229;28;20174;-79
2023/10/27 06:57:27;;;;;;;10.90;1.90;;;10.90;99.90;;;;;;5032052;28;20177;-79
2023/10/27 06:59:56;;;;;;;10.60;1.87;;;10.70;99.90;;;;;;5031679;28;20178;-78
2023/10/27 07:02:22;;;;;;;5.97;1.50;;;10.70;99.90;;;;;;5033766;28;20170;-78
2023/10/27 07:04:48;;;;;;;8.17;1.37;;;10.70;99.90;;;;;;5036837;28;20166;-76
2023/10/27 07:07:14;;;;;;;9.57;1.37;;;10.80;99.90;;;;;;5038536;28;20224;-79
2023/10/27 07:09:39;;;;;;;8.33;1.40;;;10.80;99.90;;;;;;5037785;28;20181;-87
2023/10/27 07:12:06;;;;;;;12.33;1.97;;;10.80;99.90;;;;;;5032142;28;20201;-82
2023/10/27 07:14:31;;;;;;;8.23;1.60;;;11.80;99.90;;;;;;5031876;28;20178;-80
2023/10/27 07:16:59;;;;;;;11.87;1.40;;;10.80;99.90;;;;;;5032082;28;20224;-80
2023/10/27 07:19:25;;;;;;;9.27;1.43;;;10.60;99.90;;;;;;5031876;28;20224;-81
2023/10/27 07:21:51;;;;;;;11.63;1.57;;;11.20;99.90;;;;;;5019918;28;20641;-82
2023/10/27 07:24:17;;;;;;;14.37;1.90;;;10.90;99.90;;;;;;5015430;28;20649;-80
2023/10/27 07:26:46;;;;;;;5.63;1.37;;;11.50;99.90;;;;;;5033705;28;20684;-81
2023/10/27 07:29:12;;;;;;;13.03;2.70;;;11.00;99.90;;;;;;5031432;28;20182;-82
2023/10/27 07:31:38;;;;;;;13.63;2.03;;;11.10;99.90;;;;;;5033510;28;20190;-79
2023/10/27 07:34:05;;;;;;;15.73;2.40;;;10.90;99.90;;;;;;5034512;28;20174;-81
2023/10/27 07:36:31;;;;;;;11.67;2.20;;;10.90;99.90;;;;;;5028097;28;20174;-80
2023/10/27 07:38:58;;;;;;;11.57;1.97;;;11.20;99.90;;;;;;5033094;28;20212;-80
2023/10/27 07:41:24;;;;;;;7.57;1.60;;;11.00;99.90;;;;;;5031191;28;20260;-80
2023/10/27 07:43:49;;;;;;;10.00;2.30;;;11.20;99.90;;;;;;5030895;28;20201;-78
2023/10/27 07:46:16;;;;;;;13.37;1.90;;;11.20;99.90;;;;;;5033382;28;20206;-78
2023/10/27 07:48:41;;;;;;;10.50;1.80;;;11.20;99.90;;;;;;5027823;28;20275;-77
2023/10/27 07:51:07;;;;;;;8.90;1.87;;;11.30;99.90;;;;;;5041013;28;20253;-78
2023/10/27 07:53:33;;;;;;;8.27;2.00;;;11.20;99.90;;;;;;5055315;28;20190;-79
2023/10/27 07:55:58;;;;;;;7.73;1.93;;;11.40;99.90;;;;;;5047878;28;20181;-79
2023/10/27 07:58:25;;;;;;;12.10;1.53;;;11.40;99.90;;;;;;5034479;28;20174;-79
2023/10/27 08:00:51;;;;;;;8.10;1.70;;;11.50;99.90;;;;;;5036016;28;20173;-79
2023/10/27 08:03:17;;;;;;;6.00;1.20;;;11.60;99.90;;;;;;5032253;28;20216;-79
2023/10/27 08:05:43;;;;;;;7.20;1.10;;;;;;;;;;5044068;28;20182;-79
2023/10/27 08:08:10;;;;;;;5.43;1.20;;;12.00;99.90;;;;;;5012108;28;20222;-79
2023/10/27 08:10:39;;;;;;;4.73;1.03;;;12.10;99.90;;;;;;5020926;28;20175;-80
2023/10/27 08:13:08;;;;;;;4.83;1.27;;;12.20;99.90;;;;;;5039518;28;20185;-81
2023/10/27 08:15:34;;;;;;;3.30;0.90;;;12.50;99.90;;;;;;5031564;28;20166;-80
2023/10/27 08:18:00;;;;;;;5.67;0.93;;;12.50;99.90;;;;;;5034102;28;20264;-79
2023/10/27 08:20:26;;;;;;;13.90;1.40;;;12.50;99.90;;;;;;5044345;28;20174;-83
2023/10/27 08:22:52;;;;;;;8.47;1.73;;;12.50;99.90;;;;;;5035313;28;20200;-82
2023/10/27 08:25:22;;;;;;;5.15;0.95;;;12.50;99.90;;;;;;5034500;28;20170;-84
2023/10/27 08:27:50;;;;;;;7.13;0.93;;;12.60;99.90;;;;;;5032455;28;20232;-82
2023/10/27 08:30:17;;;;;;;4.63;0.80;;;12.60;99.90;;;;;;5034555;28;20170;-79
2023/10/27 08:32:42;;;;;;;3.87;0.70;;;12.60;99.90;;;;;;5032225;28;20220;-87
2023/10/27 08:35:08;;;;;;;5.03;1.10;;;12.50;99.90;;;;;;5033623;28;20170;-86
2023/10/27 08:37:34;;;;;;;3.80;0.90;;;12.60;99.90;;;;;;5033380;28;20596;-80
2023/10/27 08:39:59;;;;;;;3.27;0.70;;;12.60;99.90;;;;;;5031773;28;20653;-78
2023/10/27 08:42:32;;;;;;;7.85;1.15;;;12.70;99.90;;;;;;5013685;28;20312;-78
2023/10/27 08:44:59;;;;;;;11.63;1.30;;;12.70;99.90;;;;;;5028445;28;20181;-80
2023/10/27 08:47:26;;;;;;;8.67;1.10;;;12.70;99.90;;;;;;5030280;28;20229;-81
2023/10/27 08:49:53;;;;;;;4.07;0.80;;;12.70;99.90;;;;;;5034082;28;20170;-76
2023/10/27 08:52:19;;;;;;;7.03;1.03;;;12.70;99.90;;;;;;5012593;28;20174;-75
2023/10/27 08:54:45;;;;;;;5.03;1.00;;;12.80;99.90;;;;;;5030553;28;20182;-77
2023/10/27 08:57:11;;;;;;;6.50;0.73;;;12.80;99.90;;;;;;5005259;28;20180;-73
2023/10/27 08:59:37;;;;;;;4.95;1.20;;;12.90;99.90;;;;;;5034350;28;20202;-78
2023/10/27 09:02:04;;;;;;;6.90;1.43;;;12.90;99.90;;;;;;5032162;28;20224;-77
2023/10/27 09:04:31;;;;;;;4.97;1.10;;;12.90;99.90;;;;;;5015940;28;20185;-80
2023/10/27 09:06:57;;;;;;;6.13;1.40;;;;;;;;;;5033055;28;20325;-76
2023/10/27 09:09:25;;;;;;;6.88;1.23;;;13.10;99.90;;;;;;5035042;28;20186;-79
2023/10/27 09:11:51;;;;;;;7.28;1.10;;;13.10;99.90;;;;;;5035813;28;20616;-80
2023/10/27 09:14:26;;;;;;;8.20;1.17;;;13.20;99.90;;;;;;5034249;28;20268;-76
2023/10/27 09:17:03;;;;;;;10.32;1.30;;;13.20;99.90;;;;;;5030701;28;20220;-78
2023/10/27 09:19:28;;;;;;;7.40;1.27;;;13.30;99.90;;;;;;5036018;28;20174;-78
2023/10/27 09:21:54;;;;;;;8.07;1.20;;;13.30;99.90;;;;;;5034243;28;20227;-77
2023/10/27 09:24:29;;;;;;;6.97;0.70;;;13.40;99.90;;;;;;5035907;28;20185;-78
2023/10/27 09:26:57;;;;;;;8.53;1.27;;;13.40;99.90;;;;;;5034563;28;20254;-81
2023/10/27 09:29:23;;;;;;;4.93;1.00;;;13.60;99.90;;;;;;5034384;28;20170;-78
2023/10/27 09:31:50;;;;;;;7.07;1.13;;;13.80;99.90;;;;;;5033448;28;20200;-77
2023/10/27 09:34:28;;;;;;;5.45;1.30;;;13.90;99.90;;;;;;5028982;28;20162;-78
2023/10/27 09:36:57;;;;;;;8.20;1.10;;;14.10;99.90;;;;;;5032711;28;20170;-77
2023/10/27 09:39:23;;;;;;;7.57;1.00;;;14.20;99.90;;;;;;5026406;28;20172;-78
2023/10/27 09:42:03;;;;;;;14.45;1.33;;;14.10;99.90;;;;;;5028181;28;20182;-77
2023/10/27 09:44:37;;;;;;;7.18;1.10;;;14.10;99.90;;;;;;5019844;28;20201;-79
2023/10/27 09:47:22;;;;;;;7.78;1.20;;;14.30;99.90;;;;;;5033758;28;20246;-77
2023/10/27 09:49:57;;;;;;;6.72;1.15;;;14.10;99.90;;;;;;4997738;28;20706;-78
2023/10/27 09:52:28;;;;;;;4.65;0.90;;;14.30;99.90;;;;;;5027648;28;20178;-77
2023/10/27 09:54:57;;;;;;;6.05;1.10;;;14.50;99.90;;;;;;5037512;28;20181;-76
2023/10/27 09:57:24;;;;;;;3.72;0.82;;;14.40;99.90;;;;;;5035942;28;20253;-77
2023/10/27 09:59:51;;;;;;;6.43;1.02;;;14.60;99.90;;;;;;5047598;28;20245;-78
2023/10/27 10:02:17;;;;;;;9.93;1.55;;;14.60;99.90;;;;;;5047733;28;20189;-79
2023/10/27 10:04:52;;;;;;;3.22;0.65;;;14.60;99.90;;;;;;5038198;28;20182;-78
2023/10/27 10:07:54;;;;;;;6.25;1.13;;;14.60;99.90;;;;;;5042143;28;20201;-78
2023/10/27 10:10:32;;;;;;;5.32;1.00;;;14.80;99.90;;;;;;5038984;28;20196;-78
2023/10/27 10:13:09;;;;;;;5.72;0.98;;;15.00;99.90;;;;;;5035444;28;20667;-78
2023/10/27 10:15:37;;;;;;;6.30;1.30;;;15.00;99.90;;;;;;5042108;28;20205;-77
2023/10/27 10:18:05;;;;;;;4.97;0.90;;;15.00;99.90;;;;;;5032789;28;20556;-77
2023/10/27 10:20:49;;;;;;;8.40;1.15;;;15.20;99.90;;;;;;5029489;28;20190;-75
2023/10/27 10:23:16;;;;;;;4.35;0.68;;;15.20;99.90;;;;;;5045866;28;20177;-76
2023/10/27 10:25:55;;;;;;;8.07;1.17;;;15.20;99.90;;;;;;5048186;28;20182;-76
2023/10/27 10:28:22;;;;;;;4.85;0.70;;;14.50;99.90;;;;;;5035459;28;20213;-74
2023/10/27 10:31:09;;;;;;;5.97;0.70;;;15.40;99.90;;;;;;5035094;28;20182;-76
2023/10/27 10:33:37;;;;;;;2.63;0.60;;;15.50;99.90;;;;;;5033515;28;20181;-78
2023/10/27 10:36:24;;;;;;;9.98;0.88;;;15.60;99.90;;;;;;5031180;28;20669;-78
2023/10/27 10:38:51;;;;;;;5.00;1.00;;;15.80;99.90;;;;;;5034280;28;20656;-78
2023/10/27 10:41:18;;;;;;;9.05;1.08;;;15.80;99.90;;;;;;5034585;28;20174;-75
2023/10/27 10:43:44;;;;;;;4.75;1.27;;;16.00;99.90;;;;;;5030893;28;20210;-76
2023/10/27 10:46:12;;;;;;;4.78;0.75;;;16.00;99.90;;;;;;5031753;28;20185;-77
2023/10/27 10:48:47;;;;;;;6.50;0.93;;;16.00;99.90;;;;;;5033636;28;20229;-78
2023/10/27 10:51:26;;;;;;;3.20;0.75;;;16.20;99.90;;;;;;5018138;28;20165;-77
2023/10/27 10:53:54;;;;;;;5.43;0.98;;;16.20;99.90;;;;;;5035493;28;20271;-78
2023/10/27 10:56:19;;;;;;;8.70;1.25;;;16.20;99.90;;;;;;5018848;28;20178;-78
2023/10/27 10:58:46;;;;;;;4.35;0.82;;;16.10;99.90;;;;;;5034895;28;20185;-78
2023/10/27 11:01:16;;;;;;;4.57;0.80;;;16.10;99.90;;;;;;5036671;28;20162;-79
2023/10/27 11:03:46;;;;;;;6.43;1.00;;;16.80;99.90;;;;;;5034442;28;20196;-77
2023/10/27 11:06:12;;;;;;;5.97;1.00;;;16.60;99.90;;;;;;5034498;28;20226;-78
2023/10/27 11:08:38;;;;;;;4.38;0.73;;;16.50;99.90;;;;;;5032689;28;20292;-77
2023/10/27 11:11:04;;;;;;;3.47;0.95;;;16.70;99.90;;;;;;5015076;28;20180;-77
2023/10/27 11:13:31;;;;;;;3.35;1.15;;;18.90;99.90;;;;;;5033053;28;20174;-77
2023/10/27 11:15:57;;;;;;;6.65;1.00;;;20.80;99.90;;;;;;5033290;28;20174;-77
2023/10/27 11:18:27;;;;;;;6.43;1.10;;;22.00;66.00;;;;;;5032649;28;20177;-77
2023/10/27 11:20:53;;;;;;;7.70;1.10;;;22.60;1.00;;;;;;5031833;28;20174;-78
2023/10/27 11:23:19;;;;;;;5.55;1.27;;;22.80;1.00;;;;;;4999353;28;20171;-78
2023/10/27 11:25:45;;;;;;;3.80;1.02;;;23.90;1.00;;;;;;5013274;28;20170;-77
2023/10/27 11:28:26;;;;;;;4.05;0.77;;;24.70;1.00;;;;;;5014037;28;20218;-77
2023/10/27 11:31:24;;;;;;;3.05;0.90;;;25.00;1.00;;;;;;5011981;28;20170;-78
2023/10/27 11:33:59;;;;;;;5.13;1.10;;;25.10;99.90;;;;;;4994386;28;20163;-76
2023/10/27 11:36:31;;;;;;;4.70;1.20;;;26.50;85.60;;;;;;5012463;28;20308;-77
2023/10/27 11:41:36;;;;;;;3.33;1.10;;;24.50;99.90;;;;;;5079331;23;20848;-77
2023/10/27 11:44:01;;;;;;;4.43;1.00;;;24.30;90.30;;;;;;4984418;28;20619;-77
2023/10/27 11:46:27;;;;;;;5.10;1.08;;;25.10;16.60;;;;;;4994578;28;20167;-77
2023/10/27 11:48:53;;;;;;;3.03;0.88;;;24.40;1.00;;;;;;4993334;28;20583;-78
2023/10/27 11:51:18;;;;;;;8.80;1.20;;;25.40;1.00;;;;;;4993454;28;20175;-78
2023/10/27 11:53:45;;;;;;;6.13;1.05;;;28.70;1.00;;;;;;4994081;28;20179;-78
2023/10/27 11:56:11;;;;;;;7.53;1.40;;;27.00;1.00;;;;;;4993076;28;20195;-77
2023/10/27 11:58:38;;;;;;;4.53;1.27;;;26.60;1.00;;;;;;4992897;28;20177;-78
2023/10/27 12:01:04;;;;;;;4.65;1.17;;;26.60;1.00;;;;;;4996844;28;20551;-78
2023/10/27 12:03:30;;;;;;;5.28;1.05;;;25.90;1.00;;;;;;4988734;28;20171;-78
2023/10/27 12:05:55;;;;;;;1.85;0.70;;;26.90;1.00;;;;;;4993542;28;20540;-77
2023/10/27 12:08:21;;;;;;;4.38;0.90;;;26.50;99.90;;;;;;4992172;28;20230;-78
2023/10/27 12:10:54;;;;;;;2.88;1.05;;;26.20;1.00;;;;;;4995834;28;20666;-77
2023/10/27 12:13:24;;;;;;;6.88;1.10;;;26.10;1.00;;;;;;5014587;28;20267;-77
2023/10/27 12:15:51;;;;;;;4.20;0.90;;;23.30;99.90;;;;;;5013914;28;20179;-77
2023/10/27 12:18:19;;;;;;;3.33;0.80;;;24.80;99.90;;;;;;4994649;28;20696;-77
2023/10/27 12:20:45;;;;;;;5.47;1.20;;;25.70;99.90;;;;;;4993772;28;20191;-77
2023/10/27 12:23:11;;;;;;;4.65;1.15;;;;;;;;;;4994038;28;20175;-78
2023/10/27 12:25:37;;;;;;;3.08;0.95;;;25.80;1.00;;;;;;4996113;28;20198;-78
2023/10/27 12:28:03;;;;;;;4.70;1.08;;;24.50;50.00;;;;;;4998701;28;20199;-80
2023/10/27 12:30:30;;;;;;;2.70;0.90;;;22.60;77.10;;;;;;4999507;28;20710;-78
2023/10/27 12:32:59;;;;;;;2.80;0.98;;;23.80;40.10;;;;;;4998269;28;20183;-79
2023/10/27 12:35:27;;;;;;;1.98;0.82;;;24.80;1.00;;;;;;4999320;28;20172;-78
2023/10/27 12:37:53;;;;;;;2.35;0.80;;;24.80;3.70;;;;;;5003103;28;20190;-77
2023/10/27 12:40:20;;;;;;;4.40;1.27;;;27.70;26.70;;;;;;4979279;28;20254;-79
2023/10/27 12:42:45;;;;;;;4.93;1.10;;;24.30;99.90;;;;;;4980851;28;20232;-78
2023/10/27 12:45:13;;;;;;;6.43;0.93;;;20.90;99.90;;;;;;5000130;28;20295;-77
2023/10/27 12:47:42;;;;;;;4.80;1.20;;;19.90;1.00;;;;;;4996010;28;20248;-80
2023/10/27 12:50:10;;;;;;;5.85;1.08;;;18.60;99.90;;;;;;4978925;28;20179;-77
2023/10/27 12:52:37;;;;;;;4.88;1.15;;;17.80;1.00;;;;;;4978529;28;20179;-76